Nearby METAR Reports

 

KOAK - Oakland, California, USA
Distance from station: SSW 6mi, 9km
Updated: Wed, 19-Jun-2019 10:53am PDT
Haze, Overcast
Haze, Overcast
 Wind from NW
Wind: NW 9 mph , 15 km/h
Temperature: 66°F , 19°C
Dew Point: 57°F , 14°C
Humidity: 73%
Barometer: 29.97 inHg , 1014.9 hPa
Summary: Haze
Clouds: Overcast
Visibility: 6 miles , 10 km
Cloud details: Overcast 1200 ft
2019/06/19 17:53 KOAK 191753Z 31008KT 6SM HZ OVC012 19/14 A2997 RMK AO2 SLP149 T01890139 10189 20156 51006
KHWD - Hayward, California, USA
Distance from station: SSE 8mi, 12km
Updated: Wed, 19-Jun-2019 10:54am PDT
Overcast
Overcast
 Wind from WNW
Wind: WNW 9 mph , 15 km/h
Temperature: 66°F , 19°C
Dew Point: 57°F , 14°C
Humidity: 73%
Barometer: 29.97 inHg , 1014.9 hPa
Clouds: Overcast
Visibility: 8 miles , 13 km
Cloud details: Overcast 1500 ft
2019/06/19 17:54 KHWD 191754Z 29008KT 8SM OVC015 19/14 A2997 RMK AO2 SLP156 T01940144 10194 20156 51006
KSFO - San Francisco, California, USA
Distance from station: SW 15mi, 25km
Updated: Wed, 19-Jun-2019 10:56am PDT
Mostly cloudy
Mostly cloudy
 Wind from NE
Wind: NE 6 mph , 9 km/h
Temperature: 66°F , 19°C
Dew Point: 57°F , 14°C
Humidity: 73%
Barometer: 29.96 inHg , 1014.6 hPa
Clouds: Mostly cloudy
Visibility: 8 miles , 13 km
Cloud details: Few Clouds 1000 ft
Mostly cloudy 1600 ft
2019/06/19 17:56 KSFO 191756Z 04005KT 8SM FEW010 BKN016 19/14 A2996 RMK AO2 SLP146 T01940144 10194 20144 51005
 
KCCR - Concord, California, USA
Distance from station: NNE 17mi, 27km
Updated: Wed, 19-Jun-2019 10:53am PDT
Clear
Clear
 Wind from W
Wind: W 13 mph , 20 km/h
Temperature: 72°F , 22°C
Dew Point: 55°F , 13°C
Humidity: 57%
Barometer: 29.94 inHg , 1013.9 hPa
Clouds: Clear
Visibility: 10 miles , 16 km
2019/06/19 17:53 KCCR 191753Z 28011KT 10SM CLR 22/13 A2994 RMK AO2 SLP123 T02220128 10222 20144 50002
KSQL - San Carlos Airpo, California, USA
Distance from station: SSW 18mi, 29km
Updated: Wed, 19-Jun-2019 10:47am PDT
Overcast
Overcast
 Wind from NW
Wind: NW 6 mph , 9 km/h
Temperature: 66°F , 19°C
Dew Point: 57°F , 14°C
Humidity: 73%
Barometer: 29.97 inHg , 1014.9 hPa
Clouds: Overcast
Visibility: 10 miles , 16 km
Cloud details: Overcast 1700 ft
2019/06/19 17:47 KSQL 191747Z 32005KT 10SM OVC017 19/14 A2997
KLVK - Livermore, California, USA
Distance from station: ESE 20mi, 31km
Updated: Wed, 19-Jun-2019 10:53am PDT
Clear
Clear
 Wind from WNW
Wind: WNW 8 mph , 13 km/h
Temperature: 73°F , 23°C
Dew Point: 57°F , 14°C
Humidity: 57%
Barometer: 29.93 inHg , 1013.5 hPa
Clouds: Clear
Visibility: 9 miles , 14 km
2019/06/19 17:53 KLVK 191753Z 29007KT 9SM CLR 23/14 A2993 RMK AO2 SLP133 T02330144 10233 20144 50000
 
KPAO - Palo Alto, California, USA
Distance from station: S 21mi, 34km
Updated: Wed, 19-Jun-2019 10:47am PDT
Mostly cloudy
Mostly cloudy
 Wind from NNW
Wind: NNW 9 mph , 15 km/h
Temperature: 68°F , 20°C
Dew Point: 59°F , 15°C
Humidity: 73%
Barometer: 29.97 inHg , 1014.9 hPa
Clouds: Mostly cloudy
Visibility: 10 miles , 16 km
Cloud details: Mostly cloudy 1600 ft
2019/06/19 17:47 KPAO 191747Z 34008KT 10SM BKN016 20/15 A2997
KHAF - Half Moon Bay, California, USA
Distance from station: SW 25mi, 41km
Updated: Wed, 19-Jun-2019 10:55am PDT
Overcast
Overcast
 Wind from SSW
Wind: SSW 10 mph , 17 km/h
Temperature: 59°F , 15°C
Dew Point: 55°F , 13°C
Humidity: 88%
Barometer: 29.99 inHg , 1015.6 hPa
Clouds: Overcast
Visibility: 10 miles , 16 km
Cloud details: Overcast 800 ft
2019/06/19 17:55 KHAF 191755Z AUTO 20009KT 10SM OVC008 15/13 A2999 RMK AO2
KNUQ - Moffett Nas/Mtn, California, USA
Distance from station: SSE 26mi, 42km
Updated: Wed, 19-Jun-2019 10:56am PDT
Clear
Clear
 Wind from NNW
Wind: NNW 9 mph , 15 km/h
Temperature: 72°F , 22°C
Dew Point: 59°F , 15°C
Humidity: 65%
Barometer: 29.96 inHg , 1014.6 hPa
Clouds: Clear
Visibility: 10 miles , 16 km
2019/06/19 17:56 KNUQ 191756Z 34008KT 10SM CLR 22/15 A2996 RMK AO2 SLP149 T02170150 10222 20150 51004
 
KAPC - Napa, California, USA
Distance from station: NNW 30mi, 49km
Updated: Wed, 19-Jun-2019 10:54am PDT
Few Clouds
Few Clouds
 Wind from WSW
Wind: WSW 9 mph , 15 km/h
Temperature: 66°F , 19°C
Dew Point: 55°F , 13°C
Humidity: 68%
Barometer: 29.96 inHg , 1014.6 hPa
Clouds: Few Clouds
Visibility: 10 miles , 16 km
Cloud details: Few Clouds 1300 ft
2019/06/19 17:54 KAPC 191754Z 24008KT 10SM FEW013 19/13 A2996 RMK AO2 SLP137 T01940133 10194 20133 50004
KSJC - San Jose, California, USA
Distance from station: SSE 31mi, 50km
Updated: Wed, 19-Jun-2019 10:53am PDT
Few Clouds
Few Clouds
 Wind from varies
Wind: varies 5 mph , 7 km/h
Temperature: 72°F , 22°C
Dew Point: 57°F , 14°C
Humidity: 61%
Barometer: 29.95 inHg , 1014.2 hPa
Clouds: Few Clouds
Visibility: 10 miles , 16 km
Cloud details: Few Clouds 1300 ft
2019/06/19 17:53 KSJC 191753Z VRB04KT 10SM FEW013 22/14 A2995 RMK AO2 SLP142 T02220144 10222 20144 50001
KDVO - Novato/Gnoss Fld, California, USA
Distance from station: NW 34mi, 54km
Updated: Wed, 19-Jun-2019 10:55am PDT
Clear
Clear
 Wind from N
Wind: N 12 mph , 19 km/h
Temperature: 68°F , 20°C
Dew Point: 59°F , 15°C
Humidity: 73%
Barometer: 29.97 inHg , 1014.9 hPa
Clouds: Clear
Visibility: 10 miles , 16 km
2019/06/19 17:55 KDVO 191755Z AUTO 01010KT 10SM CLR 20/15 A2997 RMK AO2
 
KRHV - San Jose/Reid, California, USA
Distance from station: SSE 37mi, 59km
Updated: Wed, 19-Jun-2019 10:50am PDT
Clear
Clear
 Wind from varies
Wind: varies 3 mph , 6 km/h
Temperature: 73°F , 23°C
Dew Point: 57°F , 14°C
Humidity: 57%
Barometer: 29.95 inHg , 1014.2 hPa
Clouds: Clear
Visibility: 10 miles , 16 km
2019/06/19 17:50 KRHV 191750Z VRB03KT 10SM SKC 23/14 A2995
KSUU - Travis Afb/Fairf, California, USA
Distance from station: NNE 37mi, 59km
Updated: Wed, 19-Jun-2019 9:58am PDT
Clear
Clear
 Wind from SW
Wind: SW 21 mph , 33 km/h
Temperature: 70°F , 21°C
Dew Point: 55°F , 13°C
Humidity: 60%
Barometer: 29.90 inHg , 1012.5 hPa
Clouds: Clear
Visibility: 10 miles , 16 km
2019/06/19 16:58 KSUU 191658Z AUTO 22018KT 10SM CLR 21/13 A2990 RMK AO2 PK WND 24026/41 SLP132 T02050130
KO69 - Petaluma, California, USA
Distance from station: NW 41mi, 66km
Updated: Wed, 19-Jun-2019 10:40am PDT
Overcast
Overcast
 Wind from varies
Wind: varies 6 mph , 9 km/h
Temperature: 63°F , 17°C
Dew Point: 59°F , 15°C
Humidity: 88%
Barometer: 29.98 inHg , 1015.2 hPa
Clouds: Overcast
Visibility: 10 miles , 16 km
Cloud details: Overcast 1000 ft
2019/06/19 17:40 KO69 191740Z AUTO VRB05KT 10SM OVC010 17/15 A2998 RMK A01
 
KVCB - Vacaville, California, USA
Distance from station: NNE 44mi, 71km
Updated: Wed, 19-Jun-2019 10:53am PDT
Clear
Clear
 Wind from varies
Wind: varies 3 mph , 6 km/h
Temperature: 82°F , 28°C
Heat Index: 82°F , 28°C
Dew Point: 61°F , 16°C
Humidity: 48%
Barometer: 29.90 inHg , 1012.5 hPa
Clouds: Clear
Visibility: 10 miles , 16 km
2019/06/19 17:53 KVCB 191753Z AUTO VRB03KT 10SM CLR 28/16 A2990 RMK AO2 SLP123 T02830161 10283 20156 50005